<?xml version="1.0" encoding="UTF-8" standalone="no" ?>
<gpx xmlns="http://www.topografix.com/GPX/1/1" xmlns:xsi="http://www.w3.org/2001/XMLSchema-instance" xsi:schemaLocation="http://www.topografix.com/GPX/1/1 http://www.topografix.com/GPX/1/1/gpx.xsd" version="1.1" creator="VisuGPX - https://www.visugpx.com">
  <metadata>
    <name>OMS CHENOVE Marche du vendredi 14 septembre 2012</name>
    <desc><![CDATA[Circuit Combe à la Serpent]]></desc>
  </metadata>
  <trk>
    <name><![CDATA[OMS CHENOVE Marche du vendredi 14 septembre 2012_1]]></name>
    <trkseg>
      <trkpt lat="47.3218" lon="4.98272">
        <ele>290.846</ele>
        <time>2012-09-14T08:24:36Z</time>
      </trkpt>
      <trkpt lat="47.32173" lon="4.98265">
        <ele>289.058</ele>
        <time>2012-09-14T08:24:47Z</time>
      </trkpt>
      <trkpt lat="47.32158" lon="4.98247">
        <ele>298.154</ele>
        <time>2012-09-14T08:24:58Z</time>
      </trkpt>
      <trkpt lat="47.32153" lon="4.98242">
        <ele>294.317</ele>
        <time>2012-09-14T08:25:09Z</time>
      </trkpt>
      <trkpt lat="47.3215" lon="4.98223">
        <ele>290.107</ele>
        <time>2012-09-14T08:25:20Z</time>
      </trkpt>
      <trkpt lat="47.32147" lon="4.98203">
        <ele>290.366</ele>
        <time>2012-09-14T08:25:31Z</time>
      </trkpt>
      <trkpt lat="47.32147" lon="4.98187">
        <ele>291.346</ele>
        <time>2012-09-14T08:25:42Z</time>
      </trkpt>
      <trkpt lat="47.32138" lon="4.9817">
        <ele>289.801</ele>
        <time>2012-09-14T08:25:53Z</time>
      </trkpt>
      <trkpt lat="47.32128" lon="4.98155">
        <ele>287.048</ele>
        <time>2012-09-14T08:26:04Z</time>
      </trkpt>
      <trkpt lat="47.32122" lon="4.98135">
        <ele>285.528</ele>
        <time>2012-09-14T08:26:15Z</time>
      </trkpt>
      <trkpt lat="47.32112" lon="4.98115">
        <ele>284.981</ele>
        <time>2012-09-14T08:26:26Z</time>
      </trkpt>
      <trkpt lat="47.32103" lon="4.98097">
        <ele>283.558</ele>
        <time>2012-09-14T08:26:37Z</time>
      </trkpt>
      <trkpt lat="47.32092" lon="4.9808">
        <ele>283.456</ele>
        <time>2012-09-14T08:26:48Z</time>
      </trkpt>
      <trkpt lat="47.32082" lon="4.98062">
        <ele>282.929</ele>
        <time>2012-09-14T08:26:59Z</time>
      </trkpt>
      <trkpt lat="47.3207" lon="4.98047">
        <ele>284.296</ele>
        <time>2012-09-14T08:27:10Z</time>
      </trkpt>
      <trkpt lat="47.3206" lon="4.9803">
        <ele>282.796</ele>
        <time>2012-09-14T08:27:21Z</time>
      </trkpt>
      <trkpt lat="47.32047" lon="4.98013">
        <ele>281.969</ele>
        <time>2012-09-14T08:27:32Z</time>
      </trkpt>
      <trkpt lat="47.32033" lon="4.97997">
        <ele>282.827</ele>
        <time>2012-09-14T08:27:43Z</time>
      </trkpt>
      <trkpt lat="47.32023" lon="4.97977">
        <ele>282.94</ele>
        <time>2012-09-14T08:27:54Z</time>
      </trkpt>
      <trkpt lat="47.32015" lon="4.97953">
        <ele>281.53</ele>
        <time>2012-09-14T08:28:05Z</time>
      </trkpt>
      <trkpt lat="47.32007" lon="4.97932">
        <ele>280.933</ele>
        <time>2012-09-14T08:28:16Z</time>
      </trkpt>
      <trkpt lat="47.32" lon="4.9791">
        <ele>281.486</ele>
        <time>2012-09-14T08:28:27Z</time>
      </trkpt>
      <trkpt lat="47.31995" lon="4.97887">
        <ele>282.892</ele>
        <time>2012-09-14T08:28:38Z</time>
      </trkpt>
      <trkpt lat="47.3199" lon="4.97865">
        <ele>283.735</ele>
        <time>2012-09-14T08:28:49Z</time>
      </trkpt>
      <trkpt lat="47.31985" lon="4.97842">
        <ele>285.672</ele>
        <time>2012-09-14T08:29:00Z</time>
      </trkpt>
      <trkpt lat="47.3198" lon="4.9783">
        <ele>287.552</ele>
        <time>2012-09-14T08:29:11Z</time>
      </trkpt>
      <trkpt lat="47.31975" lon="4.97803">
        <ele>288.252</ele>
        <time>2012-09-14T08:29:22Z</time>
      </trkpt>
      <trkpt lat="47.31973" lon="4.97777">
        <ele>290.853</ele>
        <time>2012-09-14T08:29:33Z</time>
      </trkpt>
      <trkpt lat="47.3197" lon="4.97758">
        <ele>293.804</ele>
        <time>2012-09-14T08:29:44Z</time>
      </trkpt>
      <trkpt lat="47.3197" lon="4.97732">
        <ele>297.891</ele>
        <time>2012-09-14T08:29:55Z</time>
      </trkpt>
      <trkpt lat="47.31968" lon="4.97705">
        <ele>298.349</ele>
        <time>2012-09-14T08:30:06Z</time>
      </trkpt>
      <trkpt lat="47.31967" lon="4.97687">
        <ele>299.366</ele>
        <time>2012-09-14T08:30:17Z</time>
      </trkpt>
      <trkpt lat="47.31958" lon="4.97665">
        <ele>302.258</ele>
        <time>2012-09-14T08:30:28Z</time>
      </trkpt>
      <trkpt lat="47.31952" lon="4.97643">
        <ele>305.091</ele>
        <time>2012-09-14T08:30:39Z</time>
      </trkpt>
      <trkpt lat="47.31943" lon="4.97618">
        <ele>307.389</ele>
        <time>2012-09-14T08:30:50Z</time>
      </trkpt>
      <trkpt lat="47.31947" lon="4.9759">
        <ele>308.79</ele>
        <time>2012-09-14T08:31:01Z</time>
      </trkpt>
      <trkpt lat="47.31942" lon="4.97567">
        <ele>310.227</ele>
        <time>2012-09-14T08:31:12Z</time>
      </trkpt>
      <trkpt lat="47.31943" lon="4.97542">
        <ele>311.236</ele>
        <time>2012-09-14T08:31:23Z</time>
      </trkpt>
      <trkpt lat="47.31947" lon="4.9752">
        <ele>311.321</ele>
        <time>2012-09-14T08:31:34Z</time>
      </trkpt>
      <trkpt lat="47.3195" lon="4.97498">
        <ele>311.793</ele>
        <time>2012-09-14T08:31:45Z</time>
      </trkpt>
      <trkpt lat="47.31955" lon="4.97483">
        <ele>313.204</ele>
        <time>2012-09-14T08:31:56Z</time>
      </trkpt>
      <trkpt lat="47.31962" lon="4.9747">
        <ele>315.342</ele>
        <time>2012-09-14T08:32:07Z</time>
      </trkpt>
      <trkpt lat="47.31963" lon="4.97457">
        <ele>318.558</ele>
        <time>2012-09-14T08:32:18Z</time>
      </trkpt>
      <trkpt lat="47.31972" lon="4.97435">
        <ele>319.17</ele>
        <time>2012-09-14T08:32:29Z</time>
      </trkpt>
      <trkpt lat="47.3198" lon="4.97418">
        <ele>321.542</ele>
        <time>2012-09-14T08:32:40Z</time>
      </trkpt>
      <trkpt lat="47.31987" lon="4.9741">
        <ele>324.786</ele>
        <time>2012-09-14T08:32:51Z</time>
      </trkpt>
      <trkpt lat="47.31997" lon="4.9739">
        <ele>327.928</ele>
        <time>2012-09-14T08:33:02Z</time>
      </trkpt>
      <trkpt lat="47.32002" lon="4.97377">
        <ele>329.5</ele>
        <time>2012-09-14T08:33:13Z</time>
      </trkpt>
      <trkpt lat="47.32005" lon="4.9736">
        <ele>332.229</ele>
        <time>2012-09-14T08:33:24Z</time>
      </trkpt>
      <trkpt lat="47.32008" lon="4.97343">
        <ele>332.473</ele>
        <time>2012-09-14T08:33:35Z</time>
      </trkpt>
      <trkpt lat="47.32013" lon="4.9732">
        <ele>332.641</ele>
        <time>2012-09-14T08:33:46Z</time>
      </trkpt>
      <trkpt lat="47.32007" lon="4.97303">
        <ele>332.915</ele>
        <time>2012-09-14T08:33:57Z</time>
      </trkpt>
      <trkpt lat="47.32007" lon="4.9728">
        <ele>333.59</ele>
        <time>2012-09-14T08:34:08Z</time>
      </trkpt>
      <trkpt lat="47.3201" lon="4.97253">
        <ele>334.375</ele>
        <time>2012-09-14T08:34:19Z</time>
      </trkpt>
      <trkpt lat="47.32013" lon="4.97228">
        <ele>337.244</ele>
        <time>2012-09-14T08:34:30Z</time>
      </trkpt>
      <trkpt lat="47.32007" lon="4.97208">
        <ele>339.515</ele>
        <time>2012-09-14T08:34:41Z</time>
      </trkpt>
      <trkpt lat="47.32003" lon="4.97182">
        <ele>339.893</ele>
        <time>2012-09-14T08:34:52Z</time>
      </trkpt>
      <trkpt lat="47.32003" lon="4.97157">
        <ele>338.127</ele>
        <time>2012-09-14T08:35:03Z</time>
      </trkpt>
      <trkpt lat="47.32005" lon="4.97135">
        <ele>335.791</ele>
        <time>2012-09-14T08:35:14Z</time>
      </trkpt>
      <trkpt lat="47.32002" lon="4.9711">
        <ele>331.256</ele>
        <time>2012-09-14T08:35:25Z</time>
      </trkpt>
      <trkpt lat="47.32002" lon="4.9709">
        <ele>332.964</ele>
        <time>2012-09-14T08:35:36Z</time>
      </trkpt>
      <trkpt lat="47.31998" lon="4.97067">
        <ele>332.281</ele>
        <time>2012-09-14T08:35:47Z</time>
      </trkpt>
      <trkpt lat="47.31995" lon="4.97047">
        <ele>335.685</ele>
        <time>2012-09-14T08:35:58Z</time>
      </trkpt>
      <trkpt lat="47.31992" lon="4.97027">
        <ele>338.506</ele>
        <time>2012-09-14T08:36:09Z</time>
      </trkpt>
      <trkpt lat="47.31988" lon="4.97007">
        <ele>341.334</ele>
        <time>2012-09-14T08:36:20Z</time>
      </trkpt>
      <trkpt lat="47.31987" lon="4.96987">
        <ele>344.898</ele>
        <time>2012-09-14T08:36:31Z</time>
      </trkpt>
      <trkpt lat="47.31982" lon="4.96967">
        <ele>346.38</ele>
        <time>2012-09-14T08:36:42Z</time>
      </trkpt>
      <trkpt lat="47.31978" lon="4.96945">
        <ele>348.624</ele>
        <time>2012-09-14T08:36:53Z</time>
      </trkpt>
      <trkpt lat="47.31975" lon="4.96927">
        <ele>350.319</ele>
        <time>2012-09-14T08:37:04Z</time>
      </trkpt>
      <trkpt lat="47.31975" lon="4.96902">
        <ele>348.471</ele>
        <time>2012-09-14T08:37:15Z</time>
      </trkpt>
      <trkpt lat="47.31972" lon="4.96877">
        <ele>347.122</ele>
        <time>2012-09-14T08:37:26Z</time>
      </trkpt>
      <trkpt lat="47.31965" lon="4.96853">
        <ele>345.232</ele>
        <time>2012-09-14T08:37:37Z</time>
      </trkpt>
      <trkpt lat="47.31962" lon="4.96828">
        <ele>344.21</ele>
        <time>2012-09-14T08:37:48Z</time>
      </trkpt>
      <trkpt lat="47.31965" lon="4.96807">
        <ele>347.943</ele>
        <time>2012-09-14T08:37:59Z</time>
      </trkpt>
      <trkpt lat="47.31955" lon="4.96783">
        <ele>348.07</ele>
        <time>2012-09-14T08:38:10Z</time>
      </trkpt>
      <trkpt lat="47.3196" lon="4.96763">
        <ele>348.27</ele>
        <time>2012-09-14T08:38:21Z</time>
      </trkpt>
      <trkpt lat="47.31967" lon="4.96738">
        <ele>349.875</ele>
        <time>2012-09-14T08:38:32Z</time>
      </trkpt>
      <trkpt lat="47.3197" lon="4.96717">
        <ele>348.797</ele>
        <time>2012-09-14T08:38:43Z</time>
      </trkpt>
      <trkpt lat="47.31978" lon="4.96693">
        <ele>347.876</ele>
        <time>2012-09-14T08:38:54Z</time>
      </trkpt>
      <trkpt lat="47.31983" lon="4.96672">
        <ele>345.924</ele>
        <time>2012-09-14T08:39:05Z</time>
      </trkpt>
      <trkpt lat="47.31988" lon="4.96653">
        <ele>346.881</ele>
        <time>2012-09-14T08:39:16Z</time>
      </trkpt>
      <trkpt lat="47.31997" lon="4.96628">
        <ele>349.777</ele>
        <time>2012-09-14T08:39:27Z</time>
      </trkpt>
      <trkpt lat="47.32" lon="4.96608">
        <ele>350.398</ele>
        <time>2012-09-14T08:39:38Z</time>
      </trkpt>
      <trkpt lat="47.32002" lon="4.96588">
        <ele>349.258</ele>
        <time>2012-09-14T08:39:49Z</time>
      </trkpt>
      <trkpt lat="47.32012" lon="4.9657">
        <ele>350.468</ele>
        <time>2012-09-14T08:40:00Z</time>
      </trkpt>
      <trkpt lat="47.32013" lon="4.96555">
        <ele>350.012</ele>
        <time>2012-09-14T08:40:11Z</time>
      </trkpt>
      <trkpt lat="47.32017" lon="4.96538">
        <ele>350.348</ele>
        <time>2012-09-14T08:40:22Z</time>
      </trkpt>
      <trkpt lat="47.32018" lon="4.96523">
        <ele>351.411</ele>
        <time>2012-09-14T08:40:33Z</time>
      </trkpt>
      <trkpt lat="47.32018" lon="4.965">
        <ele>352.573</ele>
        <time>2012-09-14T08:40:44Z</time>
      </trkpt>
      <trkpt lat="47.32027" lon="4.96478">
        <ele>356.351</ele>
        <time>2012-09-14T08:40:55Z</time>
      </trkpt>
      <trkpt lat="47.32033" lon="4.96458">
        <ele>358.728</ele>
        <time>2012-09-14T08:41:06Z</time>
      </trkpt>
      <trkpt lat="47.32038" lon="4.96445">
        <ele>361.832</ele>
        <time>2012-09-14T08:41:17Z</time>
      </trkpt>
      <trkpt lat="47.3204" lon="4.96425">
        <ele>364.244</ele>
        <time>2012-09-14T08:41:28Z</time>
      </trkpt>
      <trkpt lat="47.32047" lon="4.96405">
        <ele>368.535</ele>
        <time>2012-09-14T08:41:39Z</time>
      </trkpt>
      <trkpt lat="47.32047" lon="4.96387">
        <ele>372.85</ele>
        <time>2012-09-14T08:41:50Z</time>
      </trkpt>
      <trkpt lat="47.32048" lon="4.96363">
        <ele>374.549</ele>
        <time>2012-09-14T08:42:01Z</time>
      </trkpt>
      <trkpt lat="47.32047" lon="4.9635">
        <ele>376.185</ele>
        <time>2012-09-14T08:42:12Z</time>
      </trkpt>
      <trkpt lat="47.3205" lon="4.96332">
        <ele>376.362</ele>
        <time>2012-09-14T08:42:23Z</time>
      </trkpt>
      <trkpt lat="47.32053" lon="4.9632">
        <ele>378.076</ele>
        <time>2012-09-14T08:42:34Z</time>
      </trkpt>
      <trkpt lat="47.32058" lon="4.96297">
        <ele>380.36</ele>
        <time>2012-09-14T08:42:45Z</time>
      </trkpt>
      <trkpt lat="47.3206" lon="4.9627">
        <ele>381.339</ele>
        <time>2012-09-14T08:42:56Z</time>
      </trkpt>
      <trkpt lat="47.32062" lon="4.9625">
        <ele>382.816</ele>
        <time>2012-09-14T08:43:07Z</time>
      </trkpt>
      <trkpt lat="47.32065" lon="4.9623">
        <ele>383.846</ele>
        <time>2012-09-14T08:43:18Z</time>
      </trkpt>
      <trkpt lat="47.3207" lon="4.96208">
        <ele>383.912</ele>
        <time>2012-09-14T08:43:29Z</time>
      </trkpt>
      <trkpt lat="47.3207" lon="4.96193">
        <ele>385.629</ele>
        <time>2012-09-14T08:43:40Z</time>
      </trkpt>
      <trkpt lat="47.32068" lon="4.96172">
        <ele>386.046</ele>
        <time>2012-09-14T08:43:51Z</time>
      </trkpt>
      <trkpt lat="47.32068" lon="4.96148">
        <ele>386.225</ele>
        <time>2012-09-14T08:44:02Z</time>
      </trkpt>
      <trkpt lat="47.32068" lon="4.96125">
        <ele>386.642</ele>
        <time>2012-09-14T08:44:13Z</time>
      </trkpt>
      <trkpt lat="47.32065" lon="4.96108">
        <ele>389.015</ele>
        <time>2012-09-14T08:44:24Z</time>
      </trkpt>
      <trkpt lat="47.32062" lon="4.96088">
        <ele>388.454</ele>
        <time>2012-09-14T08:44:35Z</time>
      </trkpt>
      <trkpt lat="47.32062" lon="4.96063">
        <ele>386.494</ele>
        <time>2012-09-14T08:44:46Z</time>
      </trkpt>
      <trkpt lat="47.3206" lon="4.96043">
        <ele>389.309</ele>
        <time>2012-09-14T08:44:57Z</time>
      </trkpt>
      <trkpt lat="47.32055" lon="4.96022">
        <ele>387.685</ele>
        <time>2012-09-14T08:45:08Z</time>
      </trkpt>
      <trkpt lat="47.3205" lon="4.96003">
        <ele>387.601</ele>
        <time>2012-09-14T08:45:19Z</time>
      </trkpt>
      <trkpt lat="47.32048" lon="4.95983">
        <ele>388.731</ele>
        <time>2012-09-14T08:45:30Z</time>
      </trkpt>
      <trkpt lat="47.32048" lon="4.95963">
        <ele>390.884</ele>
        <time>2012-09-14T08:45:41Z</time>
      </trkpt>
      <trkpt lat="47.32048" lon="4.95938">
        <ele>390.968</ele>
        <time>2012-09-14T08:45:52Z</time>
      </trkpt>
      <trkpt lat="47.32045" lon="4.95917">
        <ele>390.786</ele>
        <time>2012-09-14T08:46:03Z</time>
      </trkpt>
      <trkpt lat="47.32038" lon="4.95898">
        <ele>390.186</ele>
        <time>2012-09-14T08:46:14Z</time>
      </trkpt>
      <trkpt lat="47.32027" lon="4.95888">
        <ele>387.004</ele>
        <time>2012-09-14T08:46:25Z</time>
      </trkpt>
      <trkpt lat="47.32015" lon="4.95885">
        <ele>388.184</ele>
        <time>2012-09-14T08:46:36Z</time>
      </trkpt>
      <trkpt lat="47.32003" lon="4.9588">
        <ele>389.78</ele>
        <time>2012-09-14T08:46:47Z</time>
      </trkpt>
      <trkpt lat="47.31988" lon="4.95873">
        <ele>390.369</ele>
        <time>2012-09-14T08:46:58Z</time>
      </trkpt>
      <trkpt lat="47.31977" lon="4.95868">
        <ele>392</ele>
        <time>2012-09-14T08:47:09Z</time>
      </trkpt>
      <trkpt lat="47.31963" lon="4.95863">
        <ele>394.212</ele>
        <time>2012-09-14T08:47:20Z</time>
      </trkpt>
      <trkpt lat="47.3195" lon="4.95855">
        <ele>393.573</ele>
        <time>2012-09-14T08:47:31Z</time>
      </trkpt>
      <trkpt lat="47.31937" lon="4.95848">
        <ele>395.335</ele>
        <time>2012-09-14T08:47:42Z</time>
      </trkpt>
      <trkpt lat="47.31923" lon="4.95842">
        <ele>396.731</ele>
        <time>2012-09-14T08:47:53Z</time>
      </trkpt>
      <trkpt lat="47.3191" lon="4.95833">
        <ele>399.831</ele>
        <time>2012-09-14T08:48:04Z</time>
      </trkpt>
      <trkpt lat="47.31898" lon="4.95827">
        <ele>402.837</ele>
        <time>2012-09-14T08:48:15Z</time>
      </trkpt>
      <trkpt lat="47.31887" lon="4.9582">
        <ele>403.752</ele>
        <time>2012-09-14T08:48:26Z</time>
      </trkpt>
      <trkpt lat="47.31875" lon="4.95807">
        <ele>405.388</ele>
        <time>2012-09-14T08:48:37Z</time>
      </trkpt>
      <trkpt lat="47.31872" lon="4.95787">
        <ele>407.375</ele>
        <time>2012-09-14T08:48:48Z</time>
      </trkpt>
      <trkpt lat="47.31868" lon="4.95763">
        <ele>406.862</ele>
        <time>2012-09-14T08:48:59Z</time>
      </trkpt>
      <trkpt lat="47.3186" lon="4.95745">
        <ele>409.035</ele>
        <time>2012-09-14T08:49:10Z</time>
      </trkpt>
      <trkpt lat="47.3185" lon="4.95728">
        <ele>409.971</ele>
        <time>2012-09-14T08:49:21Z</time>
      </trkpt>
      <trkpt lat="47.31843" lon="4.9571">
        <ele>410.796</ele>
        <time>2012-09-14T08:49:32Z</time>
      </trkpt>
      <trkpt lat="47.31835" lon="4.957">
        <ele>411.215</ele>
        <time>2012-09-14T08:49:43Z</time>
      </trkpt>
      <trkpt lat="47.31828" lon="4.95693">
        <ele>412.066</ele>
        <time>2012-09-14T08:49:54Z</time>
      </trkpt>
      <trkpt lat="47.31827" lon="4.95693">
        <ele>412.22</ele>
        <time>2012-09-14T08:50:05Z</time>
      </trkpt>
      <trkpt lat="47.31827" lon="4.95692">
        <ele>412.089</ele>
        <time>2012-09-14T08:50:16Z</time>
      </trkpt>
      <trkpt lat="47.31827" lon="4.95693">
        <ele>412.033</ele>
        <time>2012-09-14T08:50:27Z</time>
      </trkpt>
      <trkpt lat="47.31827" lon="4.95692">
        <ele>412.256</ele>
        <time>2012-09-14T08:50:38Z</time>
      </trkpt>
      <trkpt lat="47.31827" lon="4.95692">
        <ele>412.428</ele>
        <time>2012-09-14T08:50:49Z</time>
      </trkpt>
      <trkpt lat="47.31827" lon="4.95692">
        <ele>411.643</ele>
        <time>2012-09-14T08:51:00Z</time>
      </trkpt>
      <trkpt lat="47.31827" lon="4.95692">
        <ele>411.377</ele>
        <time>2012-09-14T08:51:11Z</time>
      </trkpt>
      <trkpt lat="47.31827" lon="4.95692">
        <ele>411.377</ele>
        <time>2012-09-14T08:51:22Z</time>
      </trkpt>
      <trkpt lat="47.31827" lon="4.95692">
        <ele>411.83</ele>
        <time>2012-09-14T08:51:33Z</time>
      </trkpt>
      <trkpt lat="47.31827" lon="4.95692">
        <ele>412.481</ele>
        <time>2012-09-14T08:51:44Z</time>
      </trkpt>
      <trkpt lat="47.31827" lon="4.95692">
        <ele>412.673</ele>
        <time>2012-09-14T08:51:55Z</time>
      </trkpt>
      <trkpt lat="47.31827" lon="4.95692">
        <ele>412.865</ele>
        <time>2012-09-14T08:52:06Z</time>
      </trkpt>
      <trkpt lat="47.31827" lon="4.95692">
        <ele>412.663</ele>
        <time>2012-09-14T08:52:17Z</time>
      </trkpt>
      <trkpt lat="47.31827" lon="4.95692">
        <ele>413.177</ele>
        <time>2012-09-14T08:52:28Z</time>
      </trkpt>
      <trkpt lat="47.31827" lon="4.95692">
        <ele>413.301</ele>
        <time>2012-09-14T08:52:39Z</time>
      </trkpt>
      <trkpt lat="47.31827" lon="4.95692">
        <ele>413.108</ele>
        <time>2012-09-14T08:52:50Z</time>
      </trkpt>
      <trkpt lat="47.31827" lon="4.95692">
        <ele>413.082</ele>
        <time>2012-09-14T08:53:01Z</time>
      </trkpt>
      <trkpt lat="47.31825" lon="4.95692">
        <ele>413.386</ele>
        <time>2012-09-14T08:53:12Z</time>
      </trkpt>
      <trkpt lat="47.31825" lon="4.9569">
        <ele>413.452</ele>
        <time>2012-09-14T08:53:23Z</time>
      </trkpt>
      <trkpt lat="47.31825" lon="4.9569">
        <ele>413.702</ele>
        <time>2012-09-14T08:53:34Z</time>
      </trkpt>
      <trkpt lat="47.31825" lon="4.9569">
        <ele>413.702</ele>
        <time>2012-09-14T08:53:45Z</time>
      </trkpt>
      <trkpt lat="47.31815" lon="4.957">
        <ele>413.059</ele>
        <time>2012-09-14T08:53:56Z</time>
      </trkpt>
      <trkpt lat="47.31803" lon="4.95707">
        <ele>413.663</ele>
        <time>2012-09-14T08:54:07Z</time>
      </trkpt>
      <trkpt lat="47.3179" lon="4.95708">
        <ele>415.142</ele>
        <time>2012-09-14T08:54:18Z</time>
      </trkpt>
      <trkpt lat="47.31777" lon="4.95712">
        <ele>415.993</ele>
        <time>2012-09-14T08:54:29Z</time>
      </trkpt>
      <trkpt lat="47.31763" lon="4.95713">
        <ele>416.657</ele>
        <time>2012-09-14T08:54:40Z</time>
      </trkpt>
      <trkpt lat="47.31752" lon="4.95713">
        <ele>417.938</ele>
        <time>2012-09-14T08:54:51Z</time>
      </trkpt>
      <trkpt lat="47.31737" lon="4.95713">
        <ele>418.327</ele>
        <time>2012-09-14T08:55:02Z</time>
      </trkpt>
      <trkpt lat="47.3172" lon="4.95713">
        <ele>419.224</ele>
        <time>2012-09-14T08:55:13Z</time>
      </trkpt>
      <trkpt lat="47.31705" lon="4.95712">
        <ele>421.252</ele>
        <time>2012-09-14T08:55:24Z</time>
      </trkpt>
      <trkpt lat="47.31693" lon="4.95712">
        <ele>422.421</ele>
        <time>2012-09-14T08:55:35Z</time>
      </trkpt>
      <trkpt lat="47.31678" lon="4.95712">
        <ele>423.813</ele>
        <time>2012-09-14T08:55:46Z</time>
      </trkpt>
      <trkpt lat="47.31667" lon="4.9572">
        <ele>426.814</ele>
        <time>2012-09-14T08:55:57Z</time>
      </trkpt>
      <trkpt lat="47.3166" lon="4.95732">
        <ele>429.081</ele>
        <time>2012-09-14T08:56:08Z</time>
      </trkpt>
      <trkpt lat="47.3166" lon="4.95743">
        <ele>429.347</ele>
        <time>2012-09-14T08:56:19Z</time>
      </trkpt>
      <trkpt lat="47.31658" lon="4.95762">
        <ele>429.201</ele>
        <time>2012-09-14T08:56:30Z</time>
      </trkpt>
      <trkpt lat="47.31655" lon="4.95778">
        <ele>431.376</ele>
        <time>2012-09-14T08:56:41Z</time>
      </trkpt>
      <trkpt lat="47.3165" lon="4.95798">
        <ele>434.436</ele>
        <time>2012-09-14T08:56:52Z</time>
      </trkpt>
      <trkpt lat="47.31645" lon="4.95813">
        <ele>439.169</ele>
        <time>2012-09-14T08:57:03Z</time>
      </trkpt>
      <trkpt lat="47.31642" lon="4.95835">
        <ele>444.488</ele>
        <time>2012-09-14T08:57:14Z</time>
      </trkpt>
      <trkpt lat="47.31637" lon="4.95862">
        <ele>448.756</ele>
        <time>2012-09-14T08:57:25Z</time>
      </trkpt>
      <trkpt lat="47.3163" lon="4.95883">
        <ele>450.771</ele>
        <time>2012-09-14T08:57:36Z</time>
      </trkpt>
      <trkpt lat="47.3163" lon="4.95903">
        <ele>451.044</ele>
        <time>2012-09-14T08:57:47Z</time>
      </trkpt>
      <trkpt lat="47.31625" lon="4.95923">
        <ele>452.837</ele>
        <time>2012-09-14T08:57:58Z</time>
      </trkpt>
      <trkpt lat="47.31623" lon="4.95948">
        <ele>454.387</ele>
        <time>2012-09-14T08:58:09Z</time>
      </trkpt>
      <trkpt lat="47.31615" lon="4.95972">
        <ele>456.971</ele>
        <time>2012-09-14T08:58:20Z</time>
      </trkpt>
      <trkpt lat="47.31613" lon="4.95995">
        <ele>457.803</ele>
        <time>2012-09-14T08:58:31Z</time>
      </trkpt>
      <trkpt lat="47.31605" lon="4.9602">
        <ele>459.861</ele>
        <time>2012-09-14T08:58:42Z</time>
      </trkpt>
      <trkpt lat="47.31607" lon="4.96055">
        <ele>460.653</ele>
        <time>2012-09-14T08:58:53Z</time>
      </trkpt>
      <trkpt lat="47.31605" lon="4.96075">
        <ele>461.754</ele>
        <time>2012-09-14T08:59:04Z</time>
      </trkpt>
      <trkpt lat="47.31592" lon="4.96095">
        <ele>464.387</ele>
        <time>2012-09-14T08:59:15Z</time>
      </trkpt>
      <trkpt lat="47.31592" lon="4.96115">
        <ele>465.049</ele>
        <time>2012-09-14T08:59:26Z</time>
      </trkpt>
      <trkpt lat="47.31588" lon="4.9613">
        <ele>462.848</ele>
        <time>2012-09-14T08:59:37Z</time>
      </trkpt>
      <trkpt lat="47.31585" lon="4.96147">
        <ele>458.479</ele>
        <time>2012-09-14T08:59:48Z</time>
      </trkpt>
      <trkpt lat="47.31583" lon="4.96165">
        <ele>453.027</ele>
        <time>2012-09-14T08:59:59Z</time>
      </trkpt>
      <trkpt lat="47.31577" lon="4.96192">
        <ele>443.523</ele>
        <time>2012-09-14T09:00:10Z</time>
      </trkpt>
      <trkpt lat="47.31562" lon="4.96205">
        <ele>438.154</ele>
        <time>2012-09-14T09:00:21Z</time>
      </trkpt>
      <trkpt lat="47.31547" lon="4.9621">
        <ele>435.759</ele>
        <time>2012-09-14T09:00:32Z</time>
      </trkpt>
      <trkpt lat="47.31527" lon="4.96212">
        <ele>431.725</ele>
        <time>2012-09-14T09:00:43Z</time>
      </trkpt>
      <trkpt lat="47.31512" lon="4.96212">
        <ele>429.706</ele>
        <time>2012-09-14T09:00:54Z</time>
      </trkpt>
      <trkpt lat="47.31497" lon="4.96203">
        <ele>428.175</ele>
        <time>2012-09-14T09:01:05Z</time>
      </trkpt>
      <trkpt lat="47.31488" lon="4.9619">
        <ele>428.786</ele>
        <time>2012-09-14T09:01:16Z</time>
      </trkpt>
      <trkpt lat="47.31478" lon="4.96178">
        <ele>427.678</ele>
        <time>2012-09-14T09:01:27Z</time>
      </trkpt>
      <trkpt lat="47.31462" lon="4.96172">
        <ele>428.312</ele>
        <time>2012-09-14T09:01:38Z</time>
      </trkpt>
      <trkpt lat="47.31447" lon="4.96168">
        <ele>428.864</ele>
        <time>2012-09-14T09:01:49Z</time>
      </trkpt>
      <trkpt lat="47.31432" lon="4.9616">
        <ele>429.293</ele>
        <time>2012-09-14T09:02:00Z</time>
      </trkpt>
      <trkpt lat="47.31417" lon="4.9615">
        <ele>430.302</ele>
        <time>2012-09-14T09:02:11Z</time>
      </trkpt>
      <trkpt lat="47.31402" lon="4.96137">
        <ele>430.456</ele>
        <time>2012-09-14T09:02:22Z</time>
      </trkpt>
      <trkpt lat="47.31388" lon="4.96127">
        <ele>431.55</ele>
        <time>2012-09-14T09:02:33Z</time>
      </trkpt>
      <trkpt lat="47.31377" lon="4.96115">
        <ele>431.321</ele>
        <time>2012-09-14T09:02:44Z</time>
      </trkpt>
      <trkpt lat="47.31365" lon="4.96102">
        <ele>430.353</ele>
        <time>2012-09-14T09:02:55Z</time>
      </trkpt>
      <trkpt lat="47.31353" lon="4.96087">
        <ele>428.032</ele>
        <time>2012-09-14T09:03:06Z</time>
      </trkpt>
      <trkpt lat="47.31342" lon="4.96072">
        <ele>428.425</ele>
        <time>2012-09-14T09:03:17Z</time>
      </trkpt>
      <trkpt lat="47.3133" lon="4.96053">
        <ele>429.345</ele>
        <time>2012-09-14T09:03:28Z</time>
      </trkpt>
      <trkpt lat="47.31315" lon="4.96047">
        <ele>431.258</ele>
        <time>2012-09-14T09:03:39Z</time>
      </trkpt>
      <trkpt lat="47.313" lon="4.9605">
        <ele>430.986</ele>
        <time>2012-09-14T09:03:50Z</time>
      </trkpt>
      <trkpt lat="47.31285" lon="4.96047">
        <ele>428.073</ele>
        <time>2012-09-14T09:04:01Z</time>
      </trkpt>
      <trkpt lat="47.31275" lon="4.96023">
        <ele>426.761</ele>
        <time>2012-09-14T09:04:12Z</time>
      </trkpt>
      <trkpt lat="47.31267" lon="4.96002">
        <ele>423.804</ele>
        <time>2012-09-14T09:04:23Z</time>
      </trkpt>
      <trkpt lat="47.3126" lon="4.95975">
        <ele>421.453</ele>
        <time>2012-09-14T09:04:34Z</time>
      </trkpt>
      <trkpt lat="47.31255" lon="4.95953">
        <ele>419.995</ele>
        <time>2012-09-14T09:04:45Z</time>
      </trkpt>
      <trkpt lat="47.31252" lon="4.95927">
        <ele>416.35</ele>
        <time>2012-09-14T09:04:56Z</time>
      </trkpt>
      <trkpt lat="47.31253" lon="4.95903">
        <ele>415.788</ele>
        <time>2012-09-14T09:05:07Z</time>
      </trkpt>
      <trkpt lat="47.31253" lon="4.95887">
        <ele>414.772</ele>
        <time>2012-09-14T09:05:18Z</time>
      </trkpt>
      <trkpt lat="47.3126" lon="4.9587">
        <ele>416.839</ele>
        <time>2012-09-14T09:05:29Z</time>
      </trkpt>
      <trkpt lat="47.31262" lon="4.95855">
        <ele>418.444</ele>
        <time>2012-09-14T09:05:40Z</time>
      </trkpt>
      <trkpt lat="47.3126" lon="4.95835">
        <ele>416.278</ele>
        <time>2012-09-14T09:05:51Z</time>
      </trkpt>
      <trkpt lat="47.3126" lon="4.95815">
        <ele>417.643</ele>
        <time>2012-09-14T09:06:02Z</time>
      </trkpt>
      <trkpt lat="47.31257" lon="4.9579">
        <ele>418.086</ele>
        <time>2012-09-14T09:06:13Z</time>
      </trkpt>
      <trkpt lat="47.31253" lon="4.95765">
        <ele>418.319</ele>
        <time>2012-09-14T09:06:24Z</time>
      </trkpt>
      <trkpt lat="47.31252" lon="4.95742">
        <ele>421.043</ele>
        <time>2012-09-14T09:06:35Z</time>
      </trkpt>
      <trkpt lat="47.3125" lon="4.9572">
        <ele>423.354</ele>
        <time>2012-09-14T09:06:46Z</time>
      </trkpt>
      <trkpt lat="47.3125" lon="4.95702">
        <ele>423.423</ele>
        <time>2012-09-14T09:06:57Z</time>
      </trkpt>
      <trkpt lat="47.31252" lon="4.95687">
        <ele>425.749</ele>
        <time>2012-09-14T09:07:08Z</time>
      </trkpt>
      <trkpt lat="47.31255" lon="4.95663">
        <ele>424.572</ele>
        <time>2012-09-14T09:07:19Z</time>
      </trkpt>
      <trkpt lat="47.3126" lon="4.95642">
        <ele>426.014</ele>
        <time>2012-09-14T09:07:30Z</time>
      </trkpt>
      <trkpt lat="47.3126" lon="4.9562">
        <ele>427.647</ele>
        <time>2012-09-14T09:07:41Z</time>
      </trkpt>
      <trkpt lat="47.3126" lon="4.95602">
        <ele>425.522</ele>
        <time>2012-09-14T09:07:52Z</time>
      </trkpt>
      <trkpt lat="47.31262" lon="4.95595">
        <ele>425.232</ele>
        <time>2012-09-14T09:08:03Z</time>
      </trkpt>
      <trkpt lat="47.31265" lon="4.95575">
        <ele>425.207</ele>
        <time>2012-09-14T09:08:14Z</time>
      </trkpt>
      <trkpt lat="47.3127" lon="4.95547">
        <ele>422.573</ele>
        <time>2012-09-14T09:08:25Z</time>
      </trkpt>
      <trkpt lat="47.31273" lon="4.9552">
        <ele>418.885</ele>
        <time>2012-09-14T09:08:36Z</time>
      </trkpt>
      <trkpt lat="47.3128" lon="4.95492">
        <ele>419.254</ele>
        <time>2012-09-14T09:08:47Z</time>
      </trkpt>
      <trkpt lat="47.3129" lon="4.9546">
        <ele>417.413</ele>
        <time>2012-09-14T09:08:58Z</time>
      </trkpt>
      <trkpt lat="47.313" lon="4.9544">
        <ele>417.167</ele>
        <time>2012-09-14T09:09:09Z</time>
      </trkpt>
      <trkpt lat="47.3131" lon="4.9542">
        <ele>418.569</ele>
        <time>2012-09-14T09:09:20Z</time>
      </trkpt>
      <trkpt lat="47.31317" lon="4.95398">
        <ele>418.849</ele>
        <time>2012-09-14T09:09:31Z</time>
      </trkpt>
      <trkpt lat="47.3132" lon="4.95397">
        <ele>424.023</ele>
        <time>2012-09-14T09:09:42Z</time>
      </trkpt>
      <trkpt lat="47.31313" lon="4.95373">
        <ele>428.817</ele>
        <time>2012-09-14T09:09:53Z</time>
      </trkpt>
      <trkpt lat="47.31312" lon="4.95353">
        <ele>434.574</ele>
        <time>2012-09-14T09:10:04Z</time>
      </trkpt>
      <trkpt lat="47.3131" lon="4.95327">
        <ele>436.824</ele>
        <time>2012-09-14T09:10:15Z</time>
      </trkpt>
      <trkpt lat="47.31307" lon="4.95308">
        <ele>438.676</ele>
        <time>2012-09-14T09:10:26Z</time>
      </trkpt>
      <trkpt lat="47.31307" lon="4.9529">
        <ele>438.998</ele>
        <time>2012-09-14T09:10:37Z</time>
      </trkpt>
      <trkpt lat="47.31305" lon="4.95268">
        <ele>442.95</ele>
        <time>2012-09-14T09:10:48Z</time>
      </trkpt>
      <trkpt lat="47.313" lon="4.95248">
        <ele>445.594</ele>
        <time>2012-09-14T09:10:59Z</time>
      </trkpt>
      <trkpt lat="47.31295" lon="4.95225">
        <ele>446.953</ele>
        <time>2012-09-14T09:11:10Z</time>
      </trkpt>
      <trkpt lat="47.31293" lon="4.95197">
        <ele>448.748</ele>
        <time>2012-09-14T09:11:21Z</time>
      </trkpt>
      <trkpt lat="47.31288" lon="4.95163">
        <ele>449.019</ele>
        <time>2012-09-14T09:11:32Z</time>
      </trkpt>
      <trkpt lat="47.3128" lon="4.95137">
        <ele>444.462</ele>
        <time>2012-09-14T09:11:43Z</time>
      </trkpt>
      <trkpt lat="47.31275" lon="4.95113">
        <ele>442.277</ele>
        <time>2012-09-14T09:11:54Z</time>
      </trkpt>
      <trkpt lat="47.31267" lon="4.9509">
        <ele>440.708</ele>
        <time>2012-09-14T09:12:05Z</time>
      </trkpt>
      <trkpt lat="47.31258" lon="4.95065">
        <ele>441.721</ele>
        <time>2012-09-14T09:12:16Z</time>
      </trkpt>
      <trkpt lat="47.3125" lon="4.95043">
        <ele>443.029</ele>
        <time>2012-09-14T09:12:27Z</time>
      </trkpt>
      <trkpt lat="47.31238" lon="4.95028">
        <ele>444.612</ele>
        <time>2012-09-14T09:12:38Z</time>
      </trkpt>
      <trkpt lat="47.31225" lon="4.95015">
        <ele>444.118</ele>
        <time>2012-09-14T09:12:49Z</time>
      </trkpt>
      <trkpt lat="47.31217" lon="4.95">
        <ele>444.653</ele>
        <time>2012-09-14T09:13:00Z</time>
      </trkpt>
      <trkpt lat="47.31205" lon="4.94983">
        <ele>444.709</ele>
        <time>2012-09-14T09:13:11Z</time>
      </trkpt>
      <trkpt lat="47.31192" lon="4.94967">
        <ele>445.21</ele>
        <time>2012-09-14T09:13:22Z</time>
      </trkpt>
      <trkpt lat="47.31173" lon="4.94953">
        <ele>441.679</ele>
        <time>2012-09-14T09:13:33Z</time>
      </trkpt>
      <trkpt lat="47.31158" lon="4.94953">
        <ele>439.084</ele>
        <time>2012-09-14T09:13:44Z</time>
      </trkpt>
      <trkpt lat="47.31143" lon="4.94952">
        <ele>439.14</ele>
        <time>2012-09-14T09:13:55Z</time>
      </trkpt>
      <trkpt lat="47.31132" lon="4.94952">
        <ele>437.896</ele>
        <time>2012-09-14T09:14:06Z</time>
      </trkpt>
      <trkpt lat="47.31112" lon="4.94952">
        <ele>435.466</ele>
        <time>2012-09-14T09:14:17Z</time>
      </trkpt>
      <trkpt lat="47.31098" lon="4.9495">
        <ele>433.829</ele>
        <time>2012-09-14T09:14:28Z</time>
      </trkpt>
      <trkpt lat="47.31083" lon="4.94948">
        <ele>432.868</ele>
        <time>2012-09-14T09:14:39Z</time>
      </trkpt>
      <trkpt lat="47.3108" lon="4.94948">
        <ele>432.581</ele>
        <time>2012-09-14T09:14:50Z</time>
      </trkpt>
      <trkpt lat="47.3108" lon="4.94948">
        <ele>432.581</ele>
        <time>2012-09-14T09:15:01Z</time>
      </trkpt>
      <trkpt lat="47.3108" lon="4.94948">
        <ele>432.581</ele>
        <time>2012-09-14T09:15:12Z</time>
      </trkpt>
      <trkpt lat="47.3108" lon="4.94948">
        <ele>432.762</ele>
        <time>2012-09-14T09:15:23Z</time>
      </trkpt>
      <trkpt lat="47.3108" lon="4.94948">
        <ele>432.762</ele>
        <time>2012-09-14T09:15:34Z</time>
      </trkpt>
      <trkpt lat="47.3108" lon="4.94948">
        <ele>432.572</ele>
        <time>2012-09-14T09:15:45Z</time>
      </trkpt>
      <trkpt lat="47.3108" lon="4.94948">
        <ele>432.572</ele>
        <time>2012-09-14T09:15:56Z</time>
      </trkpt>
      <trkpt lat="47.3108" lon="4.94948">
        <ele>432.627</ele>
        <time>2012-09-14T09:16:07Z</time>
      </trkpt>
      <trkpt lat="47.3108" lon="4.94948">
        <ele>432.627</ele>
        <time>2012-09-14T09:16:18Z</time>
      </trkpt>
      <trkpt lat="47.3108" lon="4.94948">
        <ele>432.627</ele>
        <time>2012-09-14T09:16:29Z</time>
      </trkpt>
      <trkpt lat="47.3108" lon="4.94948">
        <ele>432.627</ele>
        <time>2012-09-14T09:16:40Z</time>
      </trkpt>
      <trkpt lat="47.3108" lon="4.94948">
        <ele>432.627</ele>
        <time>2012-09-14T09:16:51Z</time>
      </trkpt>
      <trkpt lat="47.3108" lon="4.94948">
        <ele>432.627</ele>
        <time>2012-09-14T09:17:02Z</time>
      </trkpt>
      <trkpt lat="47.3108" lon="4.94948">
        <ele>432.627</ele>
        <time>2012-09-14T09:17:13Z</time>
      </trkpt>
      <trkpt lat="47.3108" lon="4.94947">
        <ele>432.397</ele>
        <time>2012-09-14T09:17:24Z</time>
      </trkpt>
      <trkpt lat="47.3108" lon="4.94947">
        <ele>432.05</ele>
        <time>2012-09-14T09:17:35Z</time>
      </trkpt>
      <trkpt lat="47.3108" lon="4.94947">
        <ele>432.05</ele>
        <time>2012-09-14T09:17:46Z</time>
      </trkpt>
      <trkpt lat="47.3108" lon="4.94947">
        <ele>432.05</ele>
        <time>2012-09-14T09:17:57Z</time>
      </trkpt>
      <trkpt lat="47.3108" lon="4.94947">
        <ele>432.05</ele>
        <time>2012-09-14T09:18:08Z</time>
      </trkpt>
      <trkpt lat="47.3108" lon="4.94947">
        <ele>432.04</ele>
        <time>2012-09-14T09:18:19Z</time>
      </trkpt>
      <trkpt lat="47.31073" lon="4.94942">
        <ele>431.12</ele>
        <time>2012-09-14T09:18:30Z</time>
      </trkpt>
      <trkpt lat="47.31065" lon="4.94933">
        <ele>429.691</ele>
        <time>2012-09-14T09:18:41Z</time>
      </trkpt>
      <trkpt lat="47.31063" lon="4.9492">
        <ele>429.321</ele>
        <time>2012-09-14T09:18:52Z</time>
      </trkpt>
      <trkpt lat="47.31063" lon="4.94903">
        <ele>429.891</ele>
        <time>2012-09-14T09:19:03Z</time>
      </trkpt>
      <trkpt lat="47.31065" lon="4.94892">
        <ele>429.722</ele>
        <time>2012-09-14T09:19:14Z</time>
      </trkpt>
      <trkpt lat="47.31067" lon="4.9488">
        <ele>431.053</ele>
        <time>2012-09-14T09:19:25Z</time>
      </trkpt>
      <trkpt lat="47.31065" lon="4.94865">
        <ele>432.572</ele>
        <time>2012-09-14T09:19:36Z</time>
      </trkpt>
      <trkpt lat="47.31063" lon="4.94853">
        <ele>432.317</ele>
        <time>2012-09-14T09:19:47Z</time>
      </trkpt>
      <trkpt lat="47.31065" lon="4.94832">
        <ele>431.371</ele>
        <time>2012-09-14T09:19:58Z</time>
      </trkpt>
      <trkpt lat="47.31065" lon="4.94808">
        <ele>431.262</ele>
        <time>2012-09-14T09:20:09Z</time>
      </trkpt>
      <trkpt lat="47.31063" lon="4.94787">
        <ele>430.209</ele>
        <time>2012-09-14T09:20:20Z</time>
      </trkpt>
      <trkpt lat="47.31065" lon="4.9476">
        <ele>430.578</ele>
        <time>2012-09-14T09:20:31Z</time>
      </trkpt>
      <trkpt lat="47.31073" lon="4.94733">
        <ele>428.758</ele>
        <time>2012-09-14T09:20:42Z</time>
      </trkpt>
      <trkpt lat="47.31078" lon="4.9471">
        <ele>426.916</ele>
        <time>2012-09-14T09:20:53Z</time>
      </trkpt>
      <trkpt lat="47.31078" lon="4.94685">
        <ele>424.773</ele>
        <time>2012-09-14T09:21:04Z</time>
      </trkpt>
      <trkpt lat="47.31082" lon="4.94658">
        <ele>423.806</ele>
        <time>2012-09-14T09:21:15Z</time>
      </trkpt>
      <trkpt lat="47.31087" lon="4.94633">
        <ele>424.127</ele>
        <time>2012-09-14T09:21:26Z</time>
      </trkpt>
      <trkpt lat="47.31085" lon="4.94618">
        <ele>424.1</ele>
        <time>2012-09-14T09:21:37Z</time>
      </trkpt>
      <trkpt lat="47.31082" lon="4.94603">
        <ele>423.73</ele>
        <time>2012-09-14T09:21:48Z</time>
      </trkpt>
      <trkpt lat="47.31085" lon="4.94578">
        <ele>423.163</ele>
        <time>2012-09-14T09:21:59Z</time>
      </trkpt>
      <trkpt lat="47.31085" lon="4.94555">
        <ele>421.128</ele>
        <time>2012-09-14T09:22:10Z</time>
      </trkpt>
      <trkpt lat="47.31088" lon="4.9453">
        <ele>421.773</ele>
        <time>2012-09-14T09:22:21Z</time>
      </trkpt>
      <trkpt lat="47.31082" lon="4.94505">
        <ele>426.419</ele>
        <time>2012-09-14T09:22:32Z</time>
      </trkpt>
      <trkpt lat="47.31078" lon="4.94493">
        <ele>427.64</ele>
        <time>2012-09-14T09:22:43Z</time>
      </trkpt>
      <trkpt lat="47.31068" lon="4.9448">
        <ele>429.199</ele>
        <time>2012-09-14T09:22:54Z</time>
      </trkpt>
      <trkpt lat="47.31062" lon="4.94462">
        <ele>429.362</ele>
        <time>2012-09-14T09:23:05Z</time>
      </trkpt>
      <trkpt lat="47.31053" lon="4.9444">
        <ele>429.223</ele>
        <time>2012-09-14T09:23:16Z</time>
      </trkpt>
      <trkpt lat="47.31043" lon="4.94415">
        <ele>427.631</ele>
        <time>2012-09-14T09:23:27Z</time>
      </trkpt>
      <trkpt lat="47.31035" lon="4.94388">
        <ele>427.604</ele>
        <time>2012-09-14T09:23:38Z</time>
      </trkpt>
      <trkpt lat="47.3103" lon="4.94367">
        <ele>428.545</ele>
        <time>2012-09-14T09:23:49Z</time>
      </trkpt>
      <trkpt lat="47.31023" lon="4.94345">
        <ele>428.35</ele>
        <time>2012-09-14T09:24:00Z</time>
      </trkpt>
      <trkpt lat="47.31017" lon="4.9433">
        <ele>428</ele>
        <time>2012-09-14T09:24:11Z</time>
      </trkpt>
      <trkpt lat="47.31008" lon="4.94322">
        <ele>426.735</ele>
        <time>2012-09-14T09:24:22Z</time>
      </trkpt>
      <trkpt lat="47.3101" lon="4.9433">
        <ele>425.724</ele>
        <time>2012-09-14T09:24:33Z</time>
      </trkpt>
      <trkpt lat="47.31013" lon="4.94337">
        <ele>427.473</ele>
        <time>2012-09-14T09:24:44Z</time>
      </trkpt>
      <trkpt lat="47.31018" lon="4.94352">
        <ele>428.35</ele>
        <time>2012-09-14T09:24:55Z</time>
      </trkpt>
      <trkpt lat="47.3102" lon="4.94368">
        <ele>429.798</ele>
        <time>2012-09-14T09:25:06Z</time>
      </trkpt>
      <trkpt lat="47.31022" lon="4.94382">
        <ele>430.839</ele>
        <time>2012-09-14T09:25:17Z</time>
      </trkpt>
      <trkpt lat="47.31028" lon="4.9441">
        <ele>429.907</ele>
        <time>2012-09-14T09:25:28Z</time>
      </trkpt>
      <trkpt lat="47.31033" lon="4.94428">
        <ele>430.414</ele>
        <time>2012-09-14T09:25:39Z</time>
      </trkpt>
      <trkpt lat="47.31037" lon="4.9445">
        <ele>430.62</ele>
        <time>2012-09-14T09:25:50Z</time>
      </trkpt>
      <trkpt lat="47.3104" lon="4.94468">
        <ele>431.679</ele>
        <time>2012-09-14T09:26:01Z</time>
      </trkpt>
      <trkpt lat="47.31042" lon="4.94483">
        <ele>433.797</ele>
        <time>2012-09-14T09:26:12Z</time>
      </trkpt>
      <trkpt lat="47.31038" lon="4.94503">
        <ele>436.271</ele>
        <time>2012-09-14T09:26:23Z</time>
      </trkpt>
      <trkpt lat="47.31033" lon="4.94515">
        <ele>440.754</ele>
        <time>2012-09-14T09:26:34Z</time>
      </trkpt>
      <trkpt lat="47.31032" lon="4.94545">
        <ele>443.807</ele>
        <time>2012-09-14T09:26:45Z</time>
      </trkpt>
      <trkpt lat="47.31033" lon="4.94558">
        <ele>448.859</ele>
        <time>2012-09-14T09:26:56Z</time>
      </trkpt>
      <trkpt lat="47.31032" lon="4.94582">
        <ele>452.7</ele>
        <time>2012-09-14T09:27:07Z</time>
      </trkpt>
      <trkpt lat="47.31027" lon="4.946">
        <ele>455.308</ele>
        <time>2012-09-14T09:27:18Z</time>
      </trkpt>
      <trkpt lat="47.31018" lon="4.94622">
        <ele>456.006</ele>
        <time>2012-09-14T09:27:29Z</time>
      </trkpt>
      <trkpt lat="47.31013" lon="4.94643">
        <ele>454.998</ele>
        <time>2012-09-14T09:27:40Z</time>
      </trkpt>
      <trkpt lat="47.31002" lon="4.9467">
        <ele>453.346</ele>
        <time>2012-09-14T09:27:51Z</time>
      </trkpt>
      <trkpt lat="47.30995" lon="4.94687">
        <ele>452.425</ele>
        <time>2012-09-14T09:28:02Z</time>
      </trkpt>
      <trkpt lat="47.30975" lon="4.94698">
        <ele>452.782</ele>
        <time>2012-09-14T09:28:13Z</time>
      </trkpt>
      <trkpt lat="47.30967" lon="4.94712">
        <ele>456.801</ele>
        <time>2012-09-14T09:28:24Z</time>
      </trkpt>
      <trkpt lat="47.30973" lon="4.94732">
        <ele>454.368</ele>
        <time>2012-09-14T09:28:35Z</time>
      </trkpt>
      <trkpt lat="47.30972" lon="4.9475">
        <ele>451.233</ele>
        <time>2012-09-14T09:28:46Z</time>
      </trkpt>
      <trkpt lat="47.3097" lon="4.94772">
        <ele>452.089</ele>
        <time>2012-09-14T09:28:57Z</time>
      </trkpt>
      <trkpt lat="47.30965" lon="4.94795">
        <ele>450.629</ele>
        <time>2012-09-14T09:29:08Z</time>
      </trkpt>
      <trkpt lat="47.30963" lon="4.94815">
        <ele>446.675</ele>
        <time>2012-09-14T09:29:19Z</time>
      </trkpt>
      <trkpt lat="47.30965" lon="4.94835">
        <ele>445.022</ele>
        <time>2012-09-14T09:29:30Z</time>
      </trkpt>
      <trkpt lat="47.30955" lon="4.94852">
        <ele>440.914</ele>
        <time>2012-09-14T09:29:41Z</time>
      </trkpt>
      <trkpt lat="47.3095" lon="4.94868">
        <ele>439.943</ele>
        <time>2012-09-14T09:29:52Z</time>
      </trkpt>
      <trkpt lat="47.30942" lon="4.94895">
        <ele>439.975</ele>
        <time>2012-09-14T09:30:03Z</time>
      </trkpt>
      <trkpt lat="47.30933" lon="4.94915">
        <ele>439.326</ele>
        <time>2012-09-14T09:30:14Z</time>
      </trkpt>
      <trkpt lat="47.30928" lon="4.94938">
        <ele>437.897</ele>
        <time>2012-09-14T09:30:25Z</time>
      </trkpt>
      <trkpt lat="47.30922" lon="4.9497">
        <ele>437.934</ele>
        <time>2012-09-14T09:30:36Z</time>
      </trkpt>
      <trkpt lat="47.30917" lon="4.94987">
        <ele>437.712</ele>
        <time>2012-09-14T09:30:47Z</time>
      </trkpt>
      <trkpt lat="47.30918" lon="4.95008">
        <ele>437.17</ele>
        <time>2012-09-14T09:30:58Z</time>
      </trkpt>
      <trkpt lat="47.30933" lon="4.95037">
        <ele>435.451</ele>
        <time>2012-09-14T09:31:09Z</time>
      </trkpt>
      <trkpt lat="47.3093" lon="4.9506">
        <ele>434.699</ele>
        <time>2012-09-14T09:31:20Z</time>
      </trkpt>
      <trkpt lat="47.3093" lon="4.95088">
        <ele>435.211</ele>
        <time>2012-09-14T09:31:31Z</time>
      </trkpt>
      <trkpt lat="47.30935" lon="4.95105">
        <ele>431.461</ele>
        <time>2012-09-14T09:31:42Z</time>
      </trkpt>
      <trkpt lat="47.30932" lon="4.9513">
        <ele>429.441</ele>
        <time>2012-09-14T09:31:53Z</time>
      </trkpt>
      <trkpt lat="47.30933" lon="4.95157">
        <ele>427.106</ele>
        <time>2012-09-14T09:32:04Z</time>
      </trkpt>
      <trkpt lat="47.30938" lon="4.9517">
        <ele>422.912</ele>
        <time>2012-09-14T09:32:15Z</time>
      </trkpt>
      <trkpt lat="47.3094" lon="4.95192">
        <ele>423.068</ele>
        <time>2012-09-14T09:32:26Z</time>
      </trkpt>
      <trkpt lat="47.30947" lon="4.95207">
        <ele>424.636</ele>
        <time>2012-09-14T09:32:37Z</time>
      </trkpt>
      <trkpt lat="47.3095" lon="4.95238">
        <ele>422.435</ele>
        <time>2012-09-14T09:32:48Z</time>
      </trkpt>
      <trkpt lat="47.30958" lon="4.95257">
        <ele>421.741</ele>
        <time>2012-09-14T09:32:59Z</time>
      </trkpt>
      <trkpt lat="47.30957" lon="4.95278">
        <ele>422.387</ele>
        <time>2012-09-14T09:33:10Z</time>
      </trkpt>
      <trkpt lat="47.3096" lon="4.953">
        <ele>422.111</ele>
        <time>2012-09-14T09:33:21Z</time>
      </trkpt>
      <trkpt lat="47.30962" lon="4.95327">
        <ele>422.218</ele>
        <time>2012-09-14T09:33:32Z</time>
      </trkpt>
      <trkpt lat="47.30958" lon="4.9535">
        <ele>418.509</ele>
        <time>2012-09-14T09:33:43Z</time>
      </trkpt>
      <trkpt lat="47.30968" lon="4.95365">
        <ele>418.003</ele>
        <time>2012-09-14T09:33:54Z</time>
      </trkpt>
      <trkpt lat="47.30975" lon="4.95387">
        <ele>414.644</ele>
        <time>2012-09-14T09:34:05Z</time>
      </trkpt>
      <trkpt lat="47.30972" lon="4.95407">
        <ele>409.02</ele>
        <time>2012-09-14T09:34:16Z</time>
      </trkpt>
      <trkpt lat="47.30968" lon="4.95437">
        <ele>412.001</ele>
        <time>2012-09-14T09:34:27Z</time>
      </trkpt>
      <trkpt lat="47.3097" lon="4.95458">
        <ele>412.952</ele>
        <time>2012-09-14T09:34:38Z</time>
      </trkpt>
      <trkpt lat="47.3098" lon="4.95482">
        <ele>411.043</ele>
        <time>2012-09-14T09:34:49Z</time>
      </trkpt>
      <trkpt lat="47.30983" lon="4.95505">
        <ele>408.384</ele>
        <time>2012-09-14T09:35:00Z</time>
      </trkpt>
      <trkpt lat="47.30985" lon="4.95522">
        <ele>403.942</ele>
        <time>2012-09-14T09:35:11Z</time>
      </trkpt>
      <trkpt lat="47.30987" lon="4.95538">
        <ele>401</ele>
        <time>2012-09-14T09:35:22Z</time>
      </trkpt>
      <trkpt lat="47.30985" lon="4.95563">
        <ele>398.448</ele>
        <time>2012-09-14T09:35:33Z</time>
      </trkpt>
      <trkpt lat="47.30988" lon="4.9558">
        <ele>396.74</ele>
        <time>2012-09-14T09:35:44Z</time>
      </trkpt>
      <trkpt lat="47.30992" lon="4.95595">
        <ele>396.428</ele>
        <time>2012-09-14T09:35:55Z</time>
      </trkpt>
      <trkpt lat="47.30997" lon="4.95623">
        <ele>394.918</ele>
        <time>2012-09-14T09:36:06Z</time>
      </trkpt>
      <trkpt lat="47.30998" lon="4.95642">
        <ele>392.286</ele>
        <time>2012-09-14T09:36:17Z</time>
      </trkpt>
      <trkpt lat="47.30998" lon="4.95667">
        <ele>393.55</ele>
        <time>2012-09-14T09:36:28Z</time>
      </trkpt>
      <trkpt lat="47.31007" lon="4.95695">
        <ele>391.338</ele>
        <time>2012-09-14T09:36:39Z</time>
      </trkpt>
      <trkpt lat="47.3101" lon="4.95712">
        <ele>389.672</ele>
        <time>2012-09-14T09:36:50Z</time>
      </trkpt>
      <trkpt lat="47.3102" lon="4.95733">
        <ele>388.896</ele>
        <time>2012-09-14T09:37:01Z</time>
      </trkpt>
      <trkpt lat="47.31025" lon="4.95757">
        <ele>383.731</ele>
        <time>2012-09-14T09:37:12Z</time>
      </trkpt>
      <trkpt lat="47.31037" lon="4.95777">
        <ele>382.37</ele>
        <time>2012-09-14T09:37:23Z</time>
      </trkpt>
      <trkpt lat="47.31042" lon="4.9579">
        <ele>378.308</ele>
        <time>2012-09-14T09:37:34Z</time>
      </trkpt>
      <trkpt lat="47.31042" lon="4.9581">
        <ele>376.69</ele>
        <time>2012-09-14T09:37:45Z</time>
      </trkpt>
      <trkpt lat="47.31047" lon="4.95837">
        <ele>377.217</ele>
        <time>2012-09-14T09:37:56Z</time>
      </trkpt>
      <trkpt lat="47.31055" lon="4.95867">
        <ele>376.758</ele>
        <time>2012-09-14T09:38:07Z</time>
      </trkpt>
      <trkpt lat="47.31063" lon="4.95893">
        <ele>375.952</ele>
        <time>2012-09-14T09:38:18Z</time>
      </trkpt>
      <trkpt lat="47.31072" lon="4.95913">
        <ele>373.136</ele>
        <time>2012-09-14T09:38:29Z</time>
      </trkpt>
      <trkpt lat="47.3107" lon="4.95935">
        <ele>371.46</ele>
        <time>2012-09-14T09:38:40Z</time>
      </trkpt>
      <trkpt lat="47.31073" lon="4.95953">
        <ele>372.789</ele>
        <time>2012-09-14T09:38:51Z</time>
      </trkpt>
      <trkpt lat="47.31075" lon="4.95977">
        <ele>377.722</ele>
        <time>2012-09-14T09:39:02Z</time>
      </trkpt>
      <trkpt lat="47.31077" lon="4.96002">
        <ele>377.942</ele>
        <time>2012-09-14T09:39:13Z</time>
      </trkpt>
      <trkpt lat="47.3107" lon="4.9603">
        <ele>381.213</ele>
        <time>2012-09-14T09:39:24Z</time>
      </trkpt>
      <trkpt lat="47.31068" lon="4.96052">
        <ele>384.692</ele>
        <time>2012-09-14T09:39:35Z</time>
      </trkpt>
      <trkpt lat="47.31067" lon="4.96077">
        <ele>380.766</ele>
        <time>2012-09-14T09:39:46Z</time>
      </trkpt>
      <trkpt lat="47.31068" lon="4.96107">
        <ele>371.253</ele>
        <time>2012-09-14T09:39:57Z</time>
      </trkpt>
      <trkpt lat="47.31065" lon="4.96135">
        <ele>364.105</ele>
        <time>2012-09-14T09:40:08Z</time>
      </trkpt>
      <trkpt lat="47.3106" lon="4.96155">
        <ele>360.572</ele>
        <time>2012-09-14T09:40:19Z</time>
      </trkpt>
      <trkpt lat="47.31057" lon="4.96178">
        <ele>361.733</ele>
        <time>2012-09-14T09:40:30Z</time>
      </trkpt>
      <trkpt lat="47.31057" lon="4.96197">
        <ele>362.17</ele>
        <time>2012-09-14T09:40:41Z</time>
      </trkpt>
      <trkpt lat="47.31058" lon="4.96218">
        <ele>364.667</ele>
        <time>2012-09-14T09:40:52Z</time>
      </trkpt>
      <trkpt lat="47.31062" lon="4.96238">
        <ele>364.795</ele>
        <time>2012-09-14T09:41:03Z</time>
      </trkpt>
      <trkpt lat="47.3107" lon="4.96258">
        <ele>364.254</ele>
        <time>2012-09-14T09:41:14Z</time>
      </trkpt>
      <trkpt lat="47.3108" lon="4.96283">
        <ele>361.552</ele>
        <time>2012-09-14T09:41:25Z</time>
      </trkpt>
      <trkpt lat="47.31087" lon="4.96298">
        <ele>361.148</ele>
        <time>2012-09-14T09:41:36Z</time>
      </trkpt>
      <trkpt lat="47.31097" lon="4.9632">
        <ele>361.33</ele>
        <time>2012-09-14T09:41:47Z</time>
      </trkpt>
      <trkpt lat="47.31105" lon="4.96338">
        <ele>358.952</ele>
        <time>2012-09-14T09:41:58Z</time>
      </trkpt>
      <trkpt lat="47.31117" lon="4.96365">
        <ele>356.206</ele>
        <time>2012-09-14T09:42:09Z</time>
      </trkpt>
      <trkpt lat="47.31127" lon="4.96385">
        <ele>351.673</ele>
        <time>2012-09-14T09:42:20Z</time>
      </trkpt>
      <trkpt lat="47.31137" lon="4.96407">
        <ele>352.166</ele>
        <time>2012-09-14T09:42:31Z</time>
      </trkpt>
      <trkpt lat="47.31143" lon="4.96418">
        <ele>351.085</ele>
        <time>2012-09-14T09:42:42Z</time>
      </trkpt>
      <trkpt lat="47.31147" lon="4.9644">
        <ele>352.296</ele>
        <time>2012-09-14T09:42:53Z</time>
      </trkpt>
      <trkpt lat="47.31152" lon="4.96465">
        <ele>353.583</ele>
        <time>2012-09-14T09:43:04Z</time>
      </trkpt>
      <trkpt lat="47.31158" lon="4.96485">
        <ele>354.015</ele>
        <time>2012-09-14T09:43:15Z</time>
      </trkpt>
      <trkpt lat="47.31163" lon="4.9651">
        <ele>352.775</ele>
        <time>2012-09-14T09:43:26Z</time>
      </trkpt>
      <trkpt lat="47.31167" lon="4.96537">
        <ele>353.896</ele>
        <time>2012-09-14T09:43:37Z</time>
      </trkpt>
      <trkpt lat="47.31167" lon="4.96558">
        <ele>353.612</ele>
        <time>2012-09-14T09:43:48Z</time>
      </trkpt>
      <trkpt lat="47.31167" lon="4.96588">
        <ele>354.037</ele>
        <time>2012-09-14T09:43:59Z</time>
      </trkpt>
      <trkpt lat="47.31168" lon="4.96613">
        <ele>351.687</ele>
        <time>2012-09-14T09:44:10Z</time>
      </trkpt>
      <trkpt lat="47.31167" lon="4.96633">
        <ele>349.298</ele>
        <time>2012-09-14T09:44:21Z</time>
      </trkpt>
      <trkpt lat="47.31167" lon="4.96657">
        <ele>350.754</ele>
        <time>2012-09-14T09:44:32Z</time>
      </trkpt>
      <trkpt lat="47.31167" lon="4.96678">
        <ele>353.972</ele>
        <time>2012-09-14T09:44:43Z</time>
      </trkpt>
      <trkpt lat="47.31168" lon="4.967">
        <ele>358.135</ele>
        <time>2012-09-14T09:44:54Z</time>
      </trkpt>
      <trkpt lat="47.31173" lon="4.96728">
        <ele>357.143</ele>
        <time>2012-09-14T09:45:05Z</time>
      </trkpt>
      <trkpt lat="47.31182" lon="4.96745">
        <ele>359.278</ele>
        <time>2012-09-14T09:45:16Z</time>
      </trkpt>
      <trkpt lat="47.3119" lon="4.96767">
        <ele>356.626</ele>
        <time>2012-09-14T09:45:27Z</time>
      </trkpt>
      <trkpt lat="47.31195" lon="4.96783">
        <ele>353.46</ele>
        <time>2012-09-14T09:45:38Z</time>
      </trkpt>
      <trkpt lat="47.31198" lon="4.96787">
        <ele>347.197</ele>
        <time>2012-09-14T09:45:49Z</time>
      </trkpt>
      <trkpt lat="47.312" lon="4.96788">
        <ele>345.591</ele>
        <time>2012-09-14T09:46:00Z</time>
      </trkpt>
      <trkpt lat="47.312" lon="4.96788">
        <ele>345.591</ele>
        <time>2012-09-14T09:46:11Z</time>
      </trkpt>
      <trkpt lat="47.31198" lon="4.96788">
        <ele>344.012</ele>
        <time>2012-09-14T09:46:22Z</time>
      </trkpt>
      <trkpt lat="47.312" lon="4.96788">
        <ele>343.812</ele>
        <time>2012-09-14T09:46:33Z</time>
      </trkpt>
      <trkpt lat="47.31195" lon="4.96797">
        <ele>342.317</ele>
        <time>2012-09-14T09:46:44Z</time>
      </trkpt>
      <trkpt lat="47.31195" lon="4.96798">
        <ele>341.141</ele>
        <time>2012-09-14T09:46:55Z</time>
      </trkpt>
      <trkpt lat="47.31195" lon="4.96798">
        <ele>341.133</ele>
        <time>2012-09-14T09:47:06Z</time>
      </trkpt>
      <trkpt lat="47.31197" lon="4.96798">
        <ele>340.778</ele>
        <time>2012-09-14T09:47:17Z</time>
      </trkpt>
      <trkpt lat="47.31197" lon="4.96798">
        <ele>339.93</ele>
        <time>2012-09-14T09:47:28Z</time>
      </trkpt>
      <trkpt lat="47.31197" lon="4.96798">
        <ele>339.096</ele>
        <time>2012-09-14T09:47:39Z</time>
      </trkpt>
      <trkpt lat="47.31197" lon="4.96798">
        <ele>339.196</ele>
        <time>2012-09-14T09:47:50Z</time>
      </trkpt>
      <trkpt lat="47.31202" lon="4.96805">
        <ele>337.578</ele>
        <time>2012-09-14T09:48:01Z</time>
      </trkpt>
      <trkpt lat="47.31213" lon="4.96817">
        <ele>338.278</ele>
        <time>2012-09-14T09:48:12Z</time>
      </trkpt>
      <trkpt lat="47.31223" lon="4.96828">
        <ele>337.045</ele>
        <time>2012-09-14T09:48:23Z</time>
      </trkpt>
      <trkpt lat="47.31235" lon="4.96842">
        <ele>335.761</ele>
        <time>2012-09-14T09:48:34Z</time>
      </trkpt>
      <trkpt lat="47.31247" lon="4.96852">
        <ele>336.184</ele>
        <time>2012-09-14T09:48:45Z</time>
      </trkpt>
      <trkpt lat="47.3126" lon="4.96865">
        <ele>336.357</ele>
        <time>2012-09-14T09:48:56Z</time>
      </trkpt>
      <trkpt lat="47.31272" lon="4.9688">
        <ele>335.533</ele>
        <time>2012-09-14T09:49:07Z</time>
      </trkpt>
      <trkpt lat="47.31285" lon="4.96892">
        <ele>335.326</ele>
        <time>2012-09-14T09:49:18Z</time>
      </trkpt>
      <trkpt lat="47.31298" lon="4.96903">
        <ele>333.376</ele>
        <time>2012-09-14T09:49:29Z</time>
      </trkpt>
      <trkpt lat="47.31312" lon="4.96915">
        <ele>331.359</ele>
        <time>2012-09-14T09:49:40Z</time>
      </trkpt>
      <trkpt lat="47.31327" lon="4.96927">
        <ele>329.67</ele>
        <time>2012-09-14T09:49:51Z</time>
      </trkpt>
      <trkpt lat="47.31337" lon="4.9694">
        <ele>326.044</ele>
        <time>2012-09-14T09:50:02Z</time>
      </trkpt>
      <trkpt lat="47.31345" lon="4.96955">
        <ele>328.108</ele>
        <time>2012-09-14T09:50:13Z</time>
      </trkpt>
      <trkpt lat="47.31357" lon="4.9697">
        <ele>328.658</ele>
        <time>2012-09-14T09:50:24Z</time>
      </trkpt>
      <trkpt lat="47.31367" lon="4.96987">
        <ele>328.918</ele>
        <time>2012-09-14T09:50:35Z</time>
      </trkpt>
      <trkpt lat="47.31375" lon="4.97003">
        <ele>330.781</ele>
        <time>2012-09-14T09:50:46Z</time>
      </trkpt>
      <trkpt lat="47.31385" lon="4.97023">
        <ele>331.428</ele>
        <time>2012-09-14T09:50:57Z</time>
      </trkpt>
      <trkpt lat="47.31392" lon="4.97038">
        <ele>336.686</ele>
        <time>2012-09-14T09:51:08Z</time>
      </trkpt>
      <trkpt lat="47.31403" lon="4.97052">
        <ele>340.89</ele>
        <time>2012-09-14T09:51:19Z</time>
      </trkpt>
      <trkpt lat="47.31413" lon="4.97065">
        <ele>343.494</ele>
        <time>2012-09-14T09:51:30Z</time>
      </trkpt>
      <trkpt lat="47.31425" lon="4.97077">
        <ele>348.341</ele>
        <time>2012-09-14T09:51:41Z</time>
      </trkpt>
      <trkpt lat="47.31435" lon="4.97092">
        <ele>353.672</ele>
        <time>2012-09-14T09:51:52Z</time>
      </trkpt>
      <trkpt lat="47.31448" lon="4.97107">
        <ele>351.739</ele>
        <time>2012-09-14T09:52:03Z</time>
      </trkpt>
      <trkpt lat="47.31462" lon="4.9712">
        <ele>352.189</ele>
        <time>2012-09-14T09:52:14Z</time>
      </trkpt>
      <trkpt lat="47.31477" lon="4.97133">
        <ele>348.487</ele>
        <time>2012-09-14T09:52:25Z</time>
      </trkpt>
      <trkpt lat="47.31487" lon="4.97145">
        <ele>351.076</ele>
        <time>2012-09-14T09:52:36Z</time>
      </trkpt>
      <trkpt lat="47.315" lon="4.97157">
        <ele>348.287</ele>
        <time>2012-09-14T09:52:47Z</time>
      </trkpt>
      <trkpt lat="47.3151" lon="4.97172">
        <ele>351.208</ele>
        <time>2012-09-14T09:52:58Z</time>
      </trkpt>
      <trkpt lat="47.31522" lon="4.97185">
        <ele>355.261</ele>
        <time>2012-09-14T09:53:09Z</time>
      </trkpt>
      <trkpt lat="47.31535" lon="4.97195">
        <ele>360.464</ele>
        <time>2012-09-14T09:53:20Z</time>
      </trkpt>
      <trkpt lat="47.3155" lon="4.97203">
        <ele>366.361</ele>
        <time>2012-09-14T09:53:31Z</time>
      </trkpt>
      <trkpt lat="47.3156" lon="4.97213">
        <ele>371.527</ele>
        <time>2012-09-14T09:53:42Z</time>
      </trkpt>
      <trkpt lat="47.31575" lon="4.97222">
        <ele>372.223</ele>
        <time>2012-09-14T09:53:53Z</time>
      </trkpt>
      <trkpt lat="47.3159" lon="4.97228">
        <ele>374.369</ele>
        <time>2012-09-14T09:54:04Z</time>
      </trkpt>
      <trkpt lat="47.31605" lon="4.97233">
        <ele>377.857</ele>
        <time>2012-09-14T09:54:15Z</time>
      </trkpt>
      <trkpt lat="47.31622" lon="4.97237">
        <ele>380.47</ele>
        <time>2012-09-14T09:54:26Z</time>
      </trkpt>
      <trkpt lat="47.3164" lon="4.97242">
        <ele>376.179</ele>
        <time>2012-09-14T09:54:37Z</time>
      </trkpt>
      <trkpt lat="47.31658" lon="4.97253">
        <ele>371.621</ele>
        <time>2012-09-14T09:54:48Z</time>
      </trkpt>
      <trkpt lat="47.3167" lon="4.97267">
        <ele>370.025</ele>
        <time>2012-09-14T09:54:59Z</time>
      </trkpt>
      <trkpt lat="47.31682" lon="4.97282">
        <ele>369.378</ele>
        <time>2012-09-14T09:55:10Z</time>
      </trkpt>
      <trkpt lat="47.31695" lon="4.97297">
        <ele>365.844</ele>
        <time>2012-09-14T09:55:21Z</time>
      </trkpt>
      <trkpt lat="47.31708" lon="4.97312">
        <ele>364.524</ele>
        <time>2012-09-14T09:55:32Z</time>
      </trkpt>
      <trkpt lat="47.31722" lon="4.97323">
        <ele>363.736</ele>
        <time>2012-09-14T09:55:43Z</time>
      </trkpt>
      <trkpt lat="47.31735" lon="4.97332">
        <ele>361.784</ele>
        <time>2012-09-14T09:55:54Z</time>
      </trkpt>
      <trkpt lat="47.3175" lon="4.97343">
        <ele>360.216</ele>
        <time>2012-09-14T09:56:05Z</time>
      </trkpt>
      <trkpt lat="47.31763" lon="4.9735">
        <ele>361.29</ele>
        <time>2012-09-14T09:56:16Z</time>
      </trkpt>
      <trkpt lat="47.31778" lon="4.97362">
        <ele>361.293</ele>
        <time>2012-09-14T09:56:27Z</time>
      </trkpt>
      <trkpt lat="47.31792" lon="4.97375">
        <ele>361.521</ele>
        <time>2012-09-14T09:56:38Z</time>
      </trkpt>
      <trkpt lat="47.31803" lon="4.97388">
        <ele>361.707</ele>
        <time>2012-09-14T09:56:49Z</time>
      </trkpt>
      <trkpt lat="47.31813" lon="4.97403">
        <ele>360.692</ele>
        <time>2012-09-14T09:57:00Z</time>
      </trkpt>
      <trkpt lat="47.31822" lon="4.97425">
        <ele>363.138</ele>
        <time>2012-09-14T09:57:11Z</time>
      </trkpt>
      <trkpt lat="47.31828" lon="4.97447">
        <ele>364.368</ele>
        <time>2012-09-14T09:57:22Z</time>
      </trkpt>
      <trkpt lat="47.31837" lon="4.97465">
        <ele>364.771</ele>
        <time>2012-09-14T09:57:33Z</time>
      </trkpt>
      <trkpt lat="47.31847" lon="4.97483">
        <ele>362.42</ele>
        <time>2012-09-14T09:57:44Z</time>
      </trkpt>
      <trkpt lat="47.3186" lon="4.97503">
        <ele>359.612</ele>
        <time>2012-09-14T09:57:55Z</time>
      </trkpt>
      <trkpt lat="47.31872" lon="4.97518">
        <ele>360.772</ele>
        <time>2012-09-14T09:58:06Z</time>
      </trkpt>
      <trkpt lat="47.31882" lon="4.97533">
        <ele>354.622</ele>
        <time>2012-09-14T09:58:17Z</time>
      </trkpt>
      <trkpt lat="47.31895" lon="4.97547">
        <ele>353.523</ele>
        <time>2012-09-14T09:58:28Z</time>
      </trkpt>
      <trkpt lat="47.31908" lon="4.9756">
        <ele>353.728</ele>
        <time>2012-09-14T09:58:39Z</time>
      </trkpt>
      <trkpt lat="47.3192" lon="4.9757">
        <ele>351.773</ele>
        <time>2012-09-14T09:58:50Z</time>
      </trkpt>
      <trkpt lat="47.3193" lon="4.97588">
        <ele>348.658</ele>
        <time>2012-09-14T09:59:01Z</time>
      </trkpt>
      <trkpt lat="47.31935" lon="4.97607">
        <ele>346.875</ele>
        <time>2012-09-14T09:59:12Z</time>
      </trkpt>
      <trkpt lat="47.31942" lon="4.97627">
        <ele>345.967</ele>
        <time>2012-09-14T09:59:23Z</time>
      </trkpt>
      <trkpt lat="47.31948" lon="4.97648">
        <ele>344.34</ele>
        <time>2012-09-14T09:59:34Z</time>
      </trkpt>
      <trkpt lat="47.31958" lon="4.97667">
        <ele>342.493</ele>
        <time>2012-09-14T09:59:45Z</time>
      </trkpt>
      <trkpt lat="47.31963" lon="4.97688">
        <ele>342.717</ele>
        <time>2012-09-14T09:59:56Z</time>
      </trkpt>
      <trkpt lat="47.31968" lon="4.97708">
        <ele>344.835</ele>
        <time>2012-09-14T10:00:07Z</time>
      </trkpt>
      <trkpt lat="47.31967" lon="4.97725">
        <ele>342.28</ele>
        <time>2012-09-14T10:00:18Z</time>
      </trkpt>
      <trkpt lat="47.3197" lon="4.97742">
        <ele>346.603</ele>
        <time>2012-09-14T10:00:29Z</time>
      </trkpt>
      <trkpt lat="47.31972" lon="4.97768">
        <ele>346.089</ele>
        <time>2012-09-14T10:00:40Z</time>
      </trkpt>
      <trkpt lat="47.31977" lon="4.97788">
        <ele>349.073</ele>
        <time>2012-09-14T10:00:51Z</time>
      </trkpt>
      <trkpt lat="47.3198" lon="4.97813">
        <ele>347.996</ele>
        <time>2012-09-14T10:01:02Z</time>
      </trkpt>
      <trkpt lat="47.31987" lon="4.97837">
        <ele>345.514</ele>
        <time>2012-09-14T10:01:13Z</time>
      </trkpt>
      <trkpt lat="47.31997" lon="4.97858">
        <ele>343.823</ele>
        <time>2012-09-14T10:01:24Z</time>
      </trkpt>
      <trkpt lat="47.32003" lon="4.97882">
        <ele>338.834</ele>
        <time>2012-09-14T10:01:35Z</time>
      </trkpt>
      <trkpt lat="47.32012" lon="4.97903">
        <ele>338.334</ele>
        <time>2012-09-14T10:01:46Z</time>
      </trkpt>
      <trkpt lat="47.32017" lon="4.97928">
        <ele>332.58</ele>
        <time>2012-09-14T10:01:57Z</time>
      </trkpt>
      <trkpt lat="47.32025" lon="4.97943">
        <ele>326.528</ele>
        <time>2012-09-14T10:02:08Z</time>
      </trkpt>
      <trkpt lat="47.32033" lon="4.9796">
        <ele>324.255</ele>
        <time>2012-09-14T10:02:19Z</time>
      </trkpt>
      <trkpt lat="47.32042" lon="4.97977">
        <ele>320.04</ele>
        <time>2012-09-14T10:02:30Z</time>
      </trkpt>
      <trkpt lat="47.3205" lon="4.97995">
        <ele>318.667</ele>
        <time>2012-09-14T10:02:41Z</time>
      </trkpt>
      <trkpt lat="47.32057" lon="4.98008">
        <ele>318.159</ele>
        <time>2012-09-14T10:02:52Z</time>
      </trkpt>
      <trkpt lat="47.32063" lon="4.98025">
        <ele>315.511</ele>
        <time>2012-09-14T10:03:03Z</time>
      </trkpt>
      <trkpt lat="47.32068" lon="4.98042">
        <ele>314.958</ele>
        <time>2012-09-14T10:03:14Z</time>
      </trkpt>
      <trkpt lat="47.32077" lon="4.98057">
        <ele>311.356</ele>
        <time>2012-09-14T10:03:25Z</time>
      </trkpt>
      <trkpt lat="47.32085" lon="4.98073">
        <ele>310.575</ele>
        <time>2012-09-14T10:03:36Z</time>
      </trkpt>
      <trkpt lat="47.32097" lon="4.98098">
        <ele>309.088</ele>
        <time>2012-09-14T10:03:47Z</time>
      </trkpt>
      <trkpt lat="47.32108" lon="4.98118">
        <ele>309.364</ele>
        <time>2012-09-14T10:03:58Z</time>
      </trkpt>
      <trkpt lat="47.32118" lon="4.98138">
        <ele>305.584</ele>
        <time>2012-09-14T10:04:09Z</time>
      </trkpt>
      <trkpt lat="47.32123" lon="4.98155">
        <ele>305.342</ele>
        <time>2012-09-14T10:04:20Z</time>
      </trkpt>
      <trkpt lat="47.32133" lon="4.98175">
        <ele>305.737</ele>
        <time>2012-09-14T10:04:31Z</time>
      </trkpt>
      <trkpt lat="47.3214" lon="4.98192">
        <ele>311.479</ele>
        <time>2012-09-14T10:04:42Z</time>
      </trkpt>
      <trkpt lat="47.32143" lon="4.98217">
        <ele>309.993</ele>
        <time>2012-09-14T10:04:53Z</time>
      </trkpt>
      <trkpt lat="47.32148" lon="4.98235">
        <ele>315.132</ele>
        <time>2012-09-14T10:05:04Z</time>
      </trkpt>
      <trkpt lat="47.32155" lon="4.9825">
        <ele>321.408</ele>
        <time>2012-09-14T10:05:15Z</time>
      </trkpt>
      <trkpt lat="47.32162" lon="4.98263">
        <ele>322.83</ele>
        <time>2012-09-14T10:05:26Z</time>
      </trkpt>
      <trkpt lat="47.32167" lon="4.98275">
        <ele>324.506</ele>
        <time>2012-09-14T10:05:37Z</time>
      </trkpt>
      <trkpt lat="47.32167" lon="4.98277">
        <ele>326.187</ele>
        <time>2012-09-14T10:05:48Z</time>
      </trkpt>
      <trkpt lat="47.32167" lon="4.98277">
        <ele>326.187</ele>
        <time>2012-09-14T10:05:59Z</time>
      </trkpt>
      <trkpt lat="47.32167" lon="4.98277">
        <ele>325.77</ele>
        <time>2012-09-14T10:06:10Z</time>
      </trkpt>
      <trkpt lat="47.32167" lon="4.98277">
        <ele>325.634</ele>
        <time>2012-09-14T10:06:21Z</time>
      </trkpt>
      <trkpt lat="47.32167" lon="4.98277">
        <ele>325.634</ele>
        <time>2012-09-14T10:06:32Z</time>
      </trkpt>
      <trkpt lat="47.32167" lon="4.98277">
        <ele>325.7</ele>
        <time>2012-09-14T10:06:43Z</time>
      </trkpt>
      <trkpt lat="47.32167" lon="4.98277">
        <ele>324.623</ele>
        <time>2012-09-14T10:06:54Z</time>
      </trkpt>
      <trkpt lat="47.32167" lon="4.98277">
        <ele>324.623</ele>
        <time>2012-09-14T10:07:05Z</time>
      </trkpt>
      <trkpt lat="47.32167" lon="4.98277">
        <ele>324.822</ele>
        <time>2012-09-14T10:07:16Z</time>
      </trkpt>
      <trkpt lat="47.32167" lon="4.98277">
        <ele>324.822</ele>
        <time>2012-09-14T10:07:27Z</time>
      </trkpt>
      <trkpt lat="47.32167" lon="4.98277">
        <ele>324.822</ele>
        <time>2012-09-14T10:07:38Z</time>
      </trkpt>
      <trkpt lat="47.32167" lon="4.98277">
        <ele>324.273</ele>
        <time>2012-09-14T10:07:49Z</time>
      </trkpt>
      <trkpt lat="47.32167" lon="4.9828">
        <ele>319.447</ele>
        <time>2012-09-14T10:08:00Z</time>
      </trkpt>
      <trkpt lat="47.32165" lon="4.9828">
        <ele>318.74</ele>
        <time>2012-09-14T10:08:11Z</time>
      </trkpt>
    </trkseg>
  </trk>
</gpx>